createdAt,value
2023-03-16T00:02:06.476Z,57.65
2023-03-16T00:04:37.455Z,41.10
2023-03-16T00:07:09.357Z,17.02
2023-03-16T00:09:40.806Z,143.20
2023-03-16T00:12:17.295Z,84.13
2023-03-16T00:14:46.940Z,38.25
2023-03-16T00:17:19.925Z,55.28
2023-03-16T00:19:55.746Z,88.32
2023-03-16T00:22:25.391Z,92.97
2023-03-16T00:24:52.875Z,89.40
2023-03-16T00:27:20.037Z,47.33
2023-03-16T00:29:48.859Z,145.93
2023-03-16T00:32:27.942Z,71.00
2023-03-16T00:34:55.455Z,43.95
2023-03-16T00:37:24.154Z,72.20
2023-03-16T00:39:52.215Z,71.75
2023-03-16T00:42:20.183Z,60.42
2023-03-16T00:44:47.445Z,114.30
2023-03-16T00:47:15.061Z,110.32
2023-03-16T00:49:43.919Z,91.13
2023-03-16T00:52:15.279Z,201.47
2023-03-16T00:54:44.382Z,130.23
2023-03-16T00:57:14.010Z,101.93
2023-03-16T00:59:42.123Z,119.53
2023-03-16T01:02:10.754Z,65.72
2023-03-16T01:04:39.931Z,87.93
2023-03-16T01:07:08.660Z,179.77
2023-03-16T01:09:36.959Z,92.57
2023-03-16T01:12:11.341Z,117.80
2023-03-16T01:14:39.028Z,109.35
2023-03-16T01:17:08.486Z,167.35
2023-03-16T01:19:37.296Z,66.13
2023-03-16T01:22:06.296Z,36.97
2023-03-16T01:24:34.749Z,39.70
2023-03-16T01:27:02.754Z,49.85
2023-03-16T01:29:29.707Z,22.20
2023-03-16T01:31:58.145Z,64.00
2023-03-16T01:34:25.206Z,87.72
2023-03-16T01:36:52.174Z,90.22
2023-03-16T01:39:51.213Z,51.97
2023-03-16T01:42:18.157Z,75.07
2023-03-16T01:45:01.551Z,41.17
2023-03-16T01:47:38.269Z,45.90
2023-03-16T01:50:07.411Z,111.10
2023-03-16T01:52:38.315Z,46.95
2023-03-16T01:55:09.562Z,80.72
2023-03-16T01:57:42.461Z,38.83
2023-03-16T02:00:23.689Z,26.10
2023-03-16T02:03:13.649Z,44.28
2023-03-16T02:05:59.587Z,57.35
2023-03-16T02:08:28.579Z,24.70
2023-03-16T02:10:57.082Z,94.05
2023-03-16T02:13:36.572Z,39.67
2023-03-16T02:16:07.617Z,20.52
2023-03-16T02:18:36.145Z,7.97
2023-03-16T02:21:29.045Z,7.07
2023-03-16T02:23:56.192Z,7.35
2023-03-16T02:26:47.478Z,7.68
2023-03-16T02:29:50.643Z,7.85
2023-03-16T02:32:18.280Z,7.90
2023-03-16T02:34:45.245Z,7.95
2023-03-16T02:37:13.443Z,7.55
2023-03-16T02:39:43.910Z,8.50
2023-03-16T02:42:18.640Z,7.55
2023-03-16T02:44:53.792Z,5.93
2023-03-16T02:47:41.791Z,7.32
2023-03-16T02:50:12.422Z,7.57
2023-03-16T02:52:41.051Z,6.95
2023-03-16T02:55:09.178Z,7.50
2023-03-16T02:57:36.204Z,7.55
2023-03-16T03:00:14.459Z,6.22
2023-03-16T03:02:41.809Z,7.82
2023-03-16T03:05:08.836Z,7.75
2023-03-16T03:07:37.169Z,6.13
2023-03-16T03:10:07.241Z,7.13
2023-03-16T03:12:34.643Z,9.65
2023-03-16T03:15:05.653Z,7.68
2023-03-16T03:17:39.838Z,8.63
2023-03-16T03:20:13.603Z,9.35
2023-03-16T03:22:40.806Z,6.97
2023-03-16T03:25:09.303Z,8.32
2023-03-16T03:27:36.278Z,6.90
2023-03-16T03:30:07.321Z,8.75
2023-03-16T03:32:34.130Z,9.13
2023-03-16T03:35:01.342Z,8.60
2023-03-16T03:37:28.827Z,8.50
2023-03-16T03:39:56.050Z,8.13
2023-03-16T03:42:26.088Z,7.95
2023-03-16T03:44:53.740Z,9.73
2023-03-16T03:47:21.608Z,8.88
2023-03-16T03:49:48.597Z,7.35
2023-03-16T03:52:15.839Z,7.60
2023-03-16T03:54:42.694Z,8.05
2023-03-16T03:57:13.639Z,8.80
2023-03-16T03:59:43.749Z,8.95
2023-03-16T04:02:29.028Z,7.03
2023-03-16T04:04:56.322Z,8.50
2023-03-16T04:07:23.267Z,7.18
2023-03-16T04:09:53.901Z,8.43
2023-03-16T04:12:29.161Z,7.25
2023-03-16T04:14:56.575Z,9.80
2023-03-16T04:17:25.121Z,8.90
2023-03-16T04:19:53.370Z,7.75
2023-03-16T04:22:23.055Z,10.05
2023-03-16T04:24:52.254Z,7.47
2023-03-16T04:27:19.509Z,7.63
2023-03-16T04:29:46.573Z,9.85
2023-03-16T04:32:13.467Z,8.30
2023-03-16T04:34:43.680Z,7.57
2023-03-16T04:37:13.021Z,8.70
2023-03-16T04:42:09.292Z,8.57
2023-03-16T04:44:44.003Z,8.02
2023-03-16T04:47:16.274Z,8.95
2023-03-16T04:49:44.297Z,9.23
2023-03-16T04:52:11.723Z,7.90
2023-03-16T04:54:39.627Z,8.52
2023-03-16T04:57:06.531Z,8.52
2023-03-16T04:59:41.809Z,6.97
2023-03-16T05:02:19.371Z,9.65
2023-03-16T05:04:46.495Z,10.00
2023-03-16T05:07:13.391Z,10.10
2023-03-16T05:09:44.136Z,9.50
2023-03-16T05:12:11.168Z,8.75
2023-03-16T05:14:38.987Z,8.63
2023-03-16T05:17:35.096Z,9.25
2023-03-16T05:20:02.148Z,8.15
2023-03-16T05:22:29.183Z,8.57
2023-03-16T05:25:20.826Z,9.25
2023-03-16T05:27:54.171Z,9.88
2023-03-16T05:30:31.061Z,9.75
2023-03-16T05:33:00.305Z,9.07
2023-03-16T05:35:28.408Z,9.23
2023-03-16T05:38:00.092Z,9.35
2023-03-16T05:40:28.858Z,10.70
2023-03-16T05:43:06.459Z,12.75
2023-03-16T05:45:38.320Z,9.50
2023-03-16T05:48:12.903Z,9.65
2023-03-16T05:50:45.071Z,9.50
2023-03-16T05:53:16.975Z,9.98
2023-03-16T05:55:44.134Z,9.60
2023-03-16T05:58:20.112Z,9.07
2023-03-16T06:00:47.845Z,10.80
2023-03-16T06:03:22.984Z,11.43
2023-03-16T06:05:50.996Z,10.27
2023-03-16T06:08:24.939Z,9.95
2023-03-16T06:10:53.842Z,10.05
2023-03-16T06:13:21.349Z,11.05
2023-03-16T06:15:49.691Z,11.20
2023-03-16T06:18:16.541Z,11.80
2023-03-16T06:20:47.004Z,12.07
2023-03-16T06:23:13.985Z,15.07
2023-03-16T06:25:41.391Z,10.57
2023-03-16T06:28:12.083Z,12.63
2023-03-16T06:30:40.811Z,11.00
2023-03-16T06:33:08.449Z,10.80
2023-03-16T06:35:35.433Z,11.32
2023-03-16T06:38:16.145Z,8.88
2023-03-16T06:40:53.595Z,13.40
2023-03-16T06:43:21.375Z,10.60
2023-03-16T06:45:48.294Z,10.52
2023-03-16T06:48:15.452Z,10.63
2023-03-16T06:50:46.463Z,10.65
2023-03-16T06:53:15.039Z,11.77
2023-03-16T06:55:42.623Z,10.93
2023-03-16T06:58:09.440Z,11.27
2023-03-16T07:00:36.339Z,11.55
2023-03-16T07:03:03.809Z,12.05
2023-03-16T07:05:32.994Z,13.13
2023-03-16T07:08:01.111Z,13.20
2023-03-16T07:10:28.301Z,10.45
2023-03-16T07:12:55.382Z,10.93
2023-03-16T07:15:25.422Z,10.27
2023-03-16T07:17:53.000Z,14.55
2023-03-16T07:20:21.683Z,63.88
2023-03-16T07:22:49.647Z,32.28
2023-03-16T07:25:16.544Z,17.55
2023-03-16T07:27:49.365Z,17.45
2023-03-16T07:30:22.191Z,12.57
2023-03-16T07:32:50.176Z,16.60
2023-03-16T07:35:18.621Z,14.48
2023-03-16T07:37:45.688Z,11.57
2023-03-16T07:40:13.901Z,9.23
2023-03-16T07:42:41.401Z,11.85
2023-03-16T07:45:17.776Z,16.65
2023-03-16T07:47:45.667Z,19.95
2023-03-16T07:50:22.192Z,27.92
2023-03-16T07:52:49.851Z,18.58
2023-03-16T07:55:16.925Z,13.15
2023-03-16T07:57:47.833Z,10.32
2023-03-16T08:00:20.483Z,19.67
2023-03-16T08:02:47.409Z,15.48
2023-03-16T08:05:15.388Z,15.20
2023-03-16T08:07:46.922Z,11.18
2023-03-16T08:10:19.180Z,10.45
2023-03-16T08:12:59.916Z,12.15
2023-03-16T08:15:27.548Z,12.52
2023-03-16T08:18:04.607Z,9.90
2023-03-16T08:20:32.335Z,8.85
2023-03-16T08:22:59.736Z,14.68
2023-03-16T08:25:31.630Z,19.33
2023-03-16T08:28:08.805Z,11.65
2023-03-16T08:30:36.341Z,13.77
2023-03-16T08:33:17.876Z,21.52
2023-03-16T08:35:45.414Z,12.32
2023-03-16T08:38:14.106Z,8.77
2023-03-16T08:40:42.125Z,8.57
2023-03-16T08:43:09.690Z,16.10
2023-03-16T08:45:36.808Z,9.48
2023-03-16T08:48:04.927Z,7.93
2023-03-16T08:50:32.145Z,15.00
2023-03-16T08:52:59.354Z,11.10
2023-03-16T08:55:27.515Z,9.57
2023-03-16T08:57:54.463Z,8.70
2023-03-16T09:00:21.823Z,10.38
2023-03-16T09:02:48.649Z,8.95
2023-03-16T09:05:18.100Z,8.45
2023-03-16T09:07:47.648Z,10.35
2023-03-16T09:10:16.223Z,9.63
2023-03-16T09:12:43.893Z,9.95
2023-03-16T09:15:13.684Z,9.07
2023-03-16T09:17:41.626Z,6.63
2023-03-16T09:20:34.813Z,8.55
2023-03-16T09:22:58.788Z,13.77
2023-03-16T09:25:26.098Z,12.10
2023-03-16T09:27:53.768Z,8.95
2023-03-16T09:30:20.693Z,8.05
2023-03-16T09:32:48.859Z,6.55
2023-03-16T09:35:15.983Z,5.07
2023-03-16T09:38:04.242Z,5.93
2023-03-16T09:40:30.893Z,6.07
2023-03-16T09:43:24.903Z,5.30
2023-03-16T09:46:05.501Z,6.10
2023-03-16T09:48:36.180Z,7.20
2023-03-16T09:51:08.376Z,5.28
2023-03-16T09:53:39.152Z,5.32
2023-03-16T09:56:20.538Z,8.90
2023-03-16T09:58:47.328Z,5.78
2023-03-16T10:01:48.175Z,12.50
2023-03-16T10:04:51.824Z,6.13
2023-03-16T10:07:27.689Z,4.03
2023-03-16T10:10:14.518Z,5.35
2023-03-16T10:12:51.372Z,4.60
2023-03-16T10:15:27.452Z,3.70
2023-03-16T10:18:17.561Z,4.03
2023-03-16T10:20:46.536Z,6.07
2023-03-16T10:23:24.820Z,4.32
2023-03-16T10:25:55.200Z,3.63
2023-03-16T10:28:27.890Z,4.38
2023-03-16T10:30:59.337Z,6.22
2023-03-16T10:33:32.104Z,14.77
2023-03-16T10:36:25.206Z,5.18
2023-03-16T10:39:00.175Z,3.75
2023-03-16T10:41:36.545Z,4.10
2023-03-16T10:44:33.381Z,3.85
2023-03-16T10:47:08.143Z,5.50
2023-03-16T10:49:44.269Z,2.78
2023-03-16T10:52:14.030Z,6.32
2023-03-16T10:54:49.517Z,2.45
2023-03-16T10:57:43.277Z,3.72
2023-03-16T11:00:21.111Z,3.45
2023-03-16T11:02:50.027Z,3.67
2023-03-16T11:05:20.493Z,3.83
2023-03-16T11:08:00.695Z,3.15
2023-03-16T11:10:40.443Z,2.03
2023-03-16T11:13:20.026Z,4.03
2023-03-16T11:16:01.543Z,2.55
2023-03-16T11:18:55.629Z,2.42
2023-03-16T11:21:41.234Z,2.92
2023-03-16T11:24:30.172Z,4.93
2023-03-16T11:27:01.510Z,2.60
2023-03-16T11:29:52.696Z,5.15
2023-03-16T11:32:26.672Z,3.13
2023-03-16T11:34:53.943Z,4.20
2023-03-16T11:37:52.679Z,3.35
2023-03-16T11:40:55.879Z,2.55
2023-03-16T11:43:56.819Z,2.25
2023-03-16T11:46:28.418Z,5.63
2023-03-16T11:49:52.425Z,2.10
2023-03-16T11:52:41.462Z,3.63
2023-03-16T11:55:32.636Z,2.20
2023-03-16T11:58:49.766Z,1.85
2023-03-16T12:01:58.135Z,3.92
2023-03-16T12:04:51.561Z,3.63
2023-03-16T12:07:35.252Z,2.08
2023-03-16T12:10:14.023Z,2.30
2023-03-16T12:13:02.104Z,3.25
2023-03-16T12:15:44.750Z,2.65
2023-03-16T12:18:21.764Z,2.80
2023-03-16T12:20:59.564Z,3.03
2023-03-16T12:23:46.043Z,2.17
2023-03-16T12:26:14.574Z,2.65
2023-03-16T12:28:43.802Z,1.58
2023-03-16T12:31:40.064Z,4.90
2023-03-16T12:34:21.401Z,2.55
2023-03-16T12:37:14.152Z,2.58
2023-03-16T12:40:15.647Z,3.20
2023-03-16T12:43:23.974Z,2.85
2023-03-16T12:46:28.942Z,19.40
2023-03-16T12:49:01.128Z,1.50
2023-03-16T12:51:41.351Z,2.08
2023-03-16T12:54:21.717Z,2.42
2023-03-16T12:56:50.583Z,2.42
2023-03-16T12:59:23.803Z,2.17
2023-03-16T13:01:58.876Z,2.78
2023-03-16T13:04:44.586Z,2.72
2023-03-16T13:07:22.876Z,2.42
2023-03-16T13:10:04.208Z,2.00
2023-03-16T13:12:36.924Z,1.55
2023-03-16T13:15:19.866Z,2.83
2023-03-16T13:17:50.852Z,1.92
2023-03-16T13:20:30.755Z,2.40
2023-03-16T13:23:23.993Z,2.72
2023-03-16T13:26:16.416Z,1.90
2023-03-16T13:28:50.849Z,3.13
2023-03-16T13:31:38.866Z,1.65
2023-03-16T13:34:08.343Z,2.70
2023-03-16T13:36:36.953Z,3.50
2023-03-16T13:39:27.122Z,2.58
2023-03-16T13:42:14.415Z,1.85
2023-03-16T13:44:42.559Z,2.83
2023-03-16T13:47:16.825Z,1.48
2023-03-16T13:49:58.217Z,3.13
2023-03-16T13:52:34.105Z,2.80
2023-03-16T13:55:06.565Z,4.07
2023-03-16T13:57:38.983Z,2.63
2023-03-16T14:00:20.128Z,2.22
2023-03-16T14:02:55.751Z,3.15
2023-03-16T14:05:25.974Z,2.25
2023-03-16T14:07:55.552Z,3.00
2023-03-16T14:10:24.701Z,2.17
2023-03-16T14:12:58.039Z,6.47
2023-03-16T14:15:30.908Z,3.05
2023-03-16T14:18:22.369Z,4.72
2023-03-16T14:20:56.295Z,5.15
2023-03-16T14:23:41.194Z,2.28
2023-03-16T14:26:14.986Z,4.00
2023-03-16T14:28:57.365Z,1.45
2023-03-16T14:31:38.489Z,3.03
2023-03-16T14:34:22.249Z,3.47
2023-03-16T14:36:49.223Z,4.38
2023-03-16T14:39:20.605Z,3.35
2023-03-16T14:41:52.314Z,5.30
2023-03-16T14:44:24.722Z,2.45
2023-03-16T14:46:56.339Z,2.38
2023-03-16T14:49:33.123Z,2.33
2023-03-16T14:52:09.230Z,4.50
2023-03-16T14:54:36.605Z,2.75
2023-03-16T14:57:08.281Z,2.78
2023-03-16T14:59:35.217Z,4.03
2023-03-16T15:02:04.150Z,1.95
2023-03-16T15:04:37.100Z,3.93
2023-03-16T15:07:28.416Z,2.58
2023-03-16T15:10:29.412Z,2.60
2023-03-16T15:13:05.916Z,4.28
2023-03-16T15:15:32.758Z,3.58
2023-03-16T15:18:00.046Z,2.53
2023-03-16T15:20:35.804Z,2.15
2023-03-16T15:23:04.796Z,3.20
2023-03-16T15:25:41.354Z,3.63
2023-03-16T15:28:23.573Z,2.42
2023-03-16T15:30:57.324Z,3.78
2023-03-16T15:33:25.618Z,3.35
2023-03-16T15:35:57.666Z,2.42
2023-03-16T15:38:34.502Z,5.95
2023-03-16T15:41:01.476Z,3.72
2023-03-16T15:43:30.581Z,4.20
2023-03-16T15:45:59.698Z,3.53
2023-03-16T15:48:26.999Z,3.27
2023-03-16T15:51:01.761Z,4.85
2023-03-16T15:53:35.724Z,2.90
2023-03-16T15:56:13.940Z,3.78
2023-03-16T15:58:45.433Z,5.25
2023-03-16T16:01:27.151Z,2.67
2023-03-16T16:03:55.817Z,3.05
2023-03-16T16:06:23.951Z,2.40
2023-03-16T16:08:50.864Z,3.08
2023-03-16T16:11:23.808Z,4.05
2023-03-16T16:13:51.494Z,2.88
2023-03-16T16:16:19.871Z,4.03
2023-03-16T16:18:48.273Z,2.28
2023-03-16T16:21:25.606Z,2.08
2023-03-16T16:23:52.894Z,3.10
2023-03-16T16:26:34.361Z,2.47
2023-03-16T16:29:22.248Z,5.57
2023-03-16T16:31:51.318Z,4.15
2023-03-16T16:34:21.522Z,2.63
2023-03-16T16:36:49.133Z,3.47
2023-03-16T16:39:16.754Z,3.88
2023-03-16T16:41:44.058Z,2.15
2023-03-16T16:44:21.378Z,2.28
2023-03-16T16:46:50.289Z,3.10
2023-03-16T16:49:23.984Z,3.08
2023-03-16T16:51:52.476Z,2.33
2023-03-16T16:54:22.766Z,3.53
2023-03-16T16:56:52.498Z,2.65
2023-03-16T16:59:32.053Z,3.63
2023-03-16T17:02:01.788Z,2.13
2023-03-16T17:04:29.648Z,2.58
2023-03-16T17:07:01.687Z,3.00
2023-03-16T17:09:30.009Z,4.93
2023-03-16T17:11:59.558Z,3.55
2023-03-16T17:14:28.174Z,4.18
2023-03-16T17:16:55.887Z,5.00
2023-03-16T17:19:27.988Z,3.30
2023-03-16T17:21:57.344Z,5.07
2023-03-16T17:24:24.849Z,3.45
2023-03-16T17:26:58.675Z,3.60
2023-03-16T17:29:29.860Z,3.65
2023-03-16T17:31:56.887Z,3.70
2023-03-16T17:34:27.289Z,4.10
2023-03-16T17:36:55.135Z,4.68
2023-03-16T17:39:28.368Z,4.03
2023-03-16T17:42:04.379Z,5.72
2023-03-16T17:44:34.605Z,4.47
2023-03-16T17:47:01.608Z,6.32
2023-03-16T17:49:30.477Z,4.18
2023-03-16T17:51:57.405Z,6.43
2023-03-16T17:54:24.225Z,4.03
2023-03-16T17:56:53.627Z,4.65
2023-03-16T17:59:22.172Z,3.97
2023-03-16T18:01:49.171Z,5.95
2023-03-16T18:04:22.796Z,5.68
2023-03-16T18:06:51.182Z,4.95
2023-03-16T18:09:20.377Z,4.22
2023-03-16T18:11:49.890Z,5.13
2023-03-16T18:14:35.502Z,4.28
2023-03-16T18:17:31.469Z,3.67
2023-03-16T18:19:59.010Z,3.63
2023-03-16T18:22:25.893Z,3.35
2023-03-16T18:24:54.964Z,5.53
2023-03-16T18:27:22.325Z,4.57
2023-03-16T18:29:49.212Z,4.43
2023-03-16T18:32:25.830Z,5.60
2023-03-16T18:34:53.640Z,7.47
2023-03-16T18:37:24.241Z,6.43
2023-03-16T18:39:52.887Z,5.70
2023-03-16T18:42:28.656Z,5.30
2023-03-16T18:44:55.539Z,5.40
2023-03-16T18:47:24.106Z,4.55
2023-03-16T18:49:53.968Z,7.05
2023-03-16T18:54:49.453Z,5.85
2023-03-16T18:57:22.933Z,6.85
2023-03-16T18:59:50.881Z,5.55
2023-03-16T19:02:30.949Z,5.53
2023-03-16T19:05:00.799Z,6.53
2023-03-16T19:07:40.969Z,7.65
2023-03-16T19:10:35.442Z,9.23
2023-03-16T19:13:02.374Z,9.02
2023-03-16T19:15:32.727Z,8.05
2023-03-16T19:18:00.151Z,5.10
2023-03-16T19:20:30.293Z,5.88
2023-03-16T19:23:11.637Z,7.10
2023-03-16T19:25:41.280Z,8.45
2023-03-16T19:28:15.207Z,4.90
2023-03-16T19:30:42.753Z,6.32
2023-03-16T19:33:20.753Z,5.85
2023-03-16T19:35:51.896Z,7.28
2023-03-16T19:38:21.241Z,7.07
2023-03-16T19:40:53.494Z,5.97
2023-03-16T19:43:21.895Z,5.25
2023-03-16T19:45:49.742Z,5.68
2023-03-16T19:48:23.069Z,5.32
2023-03-16T19:50:51.083Z,5.07
2023-03-16T19:53:21.558Z,4.55
2023-03-16T19:55:51.104Z,5.88
2023-03-16T19:58:39.288Z,4.53
2023-03-16T20:01:17.366Z,5.43
2023-03-16T20:03:47.425Z,5.43
2023-03-16T20:08:44.042Z,4.97
2023-03-16T20:11:17.589Z,5.28
2023-03-16T20:13:46.671Z,5.00
2023-03-16T20:16:33.474Z,7.00
2023-03-16T20:19:05.129Z,4.07
2023-03-16T20:21:32.513Z,4.85
2023-03-16T20:24:00.372Z,6.03
2023-03-16T20:26:33.211Z,5.20
2023-03-16T20:29:00.876Z,5.20
2023-03-16T20:31:31.344Z,6.05
2023-03-16T20:33:59.009Z,5.18
2023-03-16T20:36:26.998Z,6.80
2023-03-16T20:38:53.833Z,4.30
2023-03-16T20:41:27.605Z,4.65
2023-03-16T20:43:56.827Z,6.78
2023-03-16T20:46:30.765Z,5.90
2023-03-16T20:49:00.490Z,4.82
2023-03-16T20:51:28.686Z,5.25
2023-03-16T20:53:55.520Z,4.75
2023-03-16T20:56:26.526Z,3.97
2023-03-16T20:58:55.841Z,4.68
2023-03-16T21:01:24.410Z,4.30
2023-03-16T21:03:55.081Z,5.88
2023-03-16T21:06:28.329Z,4.38
2023-03-16T21:08:58.063Z,6.40
2023-03-16T21:11:33.819Z,5.43
2023-03-16T21:14:01.307Z,6.03
2023-03-16T21:16:30.142Z,4.40
2023-03-16T21:18:56.991Z,4.78
2023-03-16T21:21:23.945Z,6.38
2023-03-16T21:23:51.064Z,8.15
2023-03-16T21:26:23.522Z,5.65
2023-03-16T21:28:59.485Z,4.97
2023-03-16T21:31:27.004Z,4.53
2023-03-16T21:33:54.832Z,5.32
2023-03-16T21:36:26.487Z,4.80
2023-03-16T21:38:54.498Z,8.32
2023-03-16T21:41:21.446Z,5.07
2023-03-16T21:43:49.952Z,4.00
2023-03-16T21:46:20.671Z,6.47
2023-03-16T21:48:53.488Z,5.30
2023-03-16T21:51:25.183Z,6.20
2023-03-16T21:53:53.380Z,4.53
2023-03-16T21:56:23.678Z,6.32
2023-03-16T21:58:52.049Z,3.92
2023-03-16T22:01:29.088Z,5.22
2023-03-16T22:04:01.634Z,6.07
2023-03-16T22:06:29.134Z,7.57
2023-03-16T22:08:57.505Z,5.18
2023-03-16T22:11:27.995Z,5.20
2023-03-16T22:13:57.569Z,6.32
2023-03-16T22:16:27.869Z,6.90
2023-03-16T22:18:56.764Z,6.72
2023-03-16T22:21:40.941Z,5.53
2023-03-16T22:24:16.762Z,5.00
2023-03-16T22:26:43.682Z,4.90
2023-03-16T22:29:23.539Z,5.65
2023-03-16T22:31:55.294Z,7.38
2023-03-16T22:34:35.478Z,5.25
2023-03-16T22:37:02.908Z,5.80
2023-03-16T22:39:36.696Z,5.88
2023-03-16T22:42:22.659Z,5.00
2023-03-16T22:44:49.495Z,5.57
2023-03-16T22:47:28.478Z,7.93
2023-03-16T22:49:55.367Z,5.90
2023-03-16T22:52:29.178Z,7.57
2023-03-16T22:54:58.032Z,4.65
2023-03-16T22:57:25.047Z,6.63
2023-03-16T22:59:52.774Z,6.32
2023-03-16T23:02:24.454Z,7.18
2023-03-16T23:04:51.358Z,6.70
2023-03-16T23:07:19.609Z,4.20
2023-03-16T23:09:49.213Z,6.68
2023-03-16T23:12:21.132Z,6.35
2023-03-16T23:14:47.978Z,5.93
2023-03-16T23:17:20.704Z,6.10
2023-03-16T23:19:48.055Z,5.80
2023-03-16T23:22:15.636Z,4.90
2023-03-16T23:24:43.066Z,6.03
2023-03-16T23:27:22.666Z,7.65
2023-03-16T23:29:49.487Z,6.07
2023-03-16T23:32:17.212Z,8.98
2023-03-16T23:34:44.258Z,12.73
2023-03-16T23:37:11.438Z,11.73
2023-03-16T23:39:38.319Z,7.40
2023-03-16T23:42:05.449Z,14.20
2023-03-16T23:44:32.445Z,9.63
2023-03-16T23:47:00.492Z,9.50
2023-03-16T23:49:32.532Z,8.88
2023-03-16T23:52:01.320Z,8.80
2023-03-16T23:54:31.174Z,8.05
2023-03-16T23:56:58.131Z,7.80
2023-03-16T23:59:27.242Z,6.63
